Strathmore, CA (93267)

11:05 AM PDT on September 20, 2014 (GMT -0700)
Plainview | Change Station
CLOSE
Current Station
Personal Weather Station
Location: Strathmore, CA
Elevation: 354 ft
Nearby Weather Stations

Elev 354 ft 36.14 °N, 119.14 °W | Updated 59 seconds ago

Clear
Clear
81.0 °F
Feels Like 82 °F
N
4.9
Wind Variable Wind from SSW
Gusts 11.0 mph

Today
High -- | Low -- °F
--% Chance of Precip.
Yesterday
High -- | Low -- °F
Precip. -- in
6:42 AM 6:55 PM
Waning Crescent, 11% visible
Pressure 29.92 in
Visibility 10.0 miles
Clouds Clear
Heat Index 82 °F
Dew Point 61 °F
Humidity 50%
Rainfall 0.00 in
Snow Depth 0 in , 0 in , 0 in
UV 3.9 out of 12
Pollen 6.20 out of 12
PM2.5 Moderate
Flu Activity Not available.
METAR KPTV 201755Z 20007KT 10SM CLR 27/14 A2992 RMK AO1 10270 20170 52007

More Conditions Fewer Conditions

Pressure 29.92 in
Visibility 10.0 miles
Clouds Clear
Heat Index 82 °F
Dew Point 61 °F
Humidity 50%
Rainfall 0.00 in
Snow Depth 0 in , 0 in , 0 in
UV 3.9 out of 12
Pollen 6.20 out of 12
PM2.5 Moderate
Flu Activity Not available.
METAR KPTV 201755Z 20007KT 10SM CLR 27/14 A2992 RMK AO1 10270 20170 52007

More Conditions Fewer Conditions

10-Day Weather Forecast

Almanac

Astronomy

Sep. 20, 2014 Rise Set
Actual Time 6:42 AM PDT 6:55 PM PDT
Civil Twilight 6:17 AM PDT 7:21 PM PDT
Nautical Twilight 5:47 AM PDT 7:51 PM PDT
Astronomical Twilight 5:16 AM PDT 8:21 PM PDT
Moon 3:31 AM PDT 4:58 PM PDT
Length of Visible Light 13h 04m
Length of Day
12h 13m
Tomorrow will be 2m 16s shorter.
Waning Crescent, 11% of the Moon is Illuminated
Today
Waning Crescent
Sep 24
New
Oct 1
First Quarter
Oct 8
Full
Oct 15
Last Quarter

Today's Extremes

State Highs State Lows

Community

WunderPhotos

Upload Photos

1,754,921 photos uploaded!

WunderBlogs® & News

Nearby

Air Quality

  Air Quality AQ Index Pollutant
Yesterday Moderate
PM2.5
Yesterday Good
OZONE
Current Moderate
PM2.5
Saturday Moderate
PM2.5
Sunday Moderate
PM2.5
Monday Moderate
PM2.5
Tuesday Moderate
PM2.5
Wednesday Moderate
PM2.5

Snow Depth

Station Depth Elevation
Spratt Creek 0 in 6200 ft
Tahoe City Cross 0 in 6750 ft
Rubicon #2 0 in 7500 ft
Leavitt Lake 0 in 9400 ft
Forestdale Creek 0 in 8029 ft

Earthquake Activity

City Distance Mag. Time & Date
Inyokern, California 67 miles 3.1 5:33 PM PDT
2014-09-19
Corcoran, California 32 miles 2.9 3:59 PM PDT
2014-09-18
Minimum magnitude displayed is 2.5.

Coastal Water Temperatures

Place Temperature
No Stations Reporting

Nearby Weather Stations